Terminal Aerodrome Forecast
Issued by NWS

Home | Current Version | Previous Version | Text Only | Print | Product List | Glossary On
Versions: 1 2 3 4 5 6 7 8 9 10 11 12 13 14 15 16 17 18 19 20
000
FTUS43 KDVN 240900 AAA
TAFBRL
TAF AMD
KBRL 240902Z 2409/2506 32007KT P6SM BKN012 OVC035
      TEMPO 2409/2412 5SM BR OVC008
     FM241200 30007KT 5SM BR BKN006 OVC015
     FM241400 31011KT P6SM BKN008 OVC020
     FM241800 31014KT P6SM -SN OVC015
     FM242200 31012KT P6SM BKN025=

USA.gov is the U.S. government's official web portal to all federal, state and local government web resources and services.